createdAt,value
2018-10-03T00:00:26.607Z,11.15
2018-10-03T00:01:36.325Z,11.16
2018-10-03T00:02:46.274Z,11.23
2018-10-03T00:03:55.975Z,11.3
2018-10-03T00:05:05.940Z,11.35
2018-10-03T00:06:15.619Z,11.34
2018-10-03T00:07:25.550Z,11.34
2018-10-03T00:08:35.490Z,11.3
2018-10-03T00:09:45.156Z,11.31
2018-10-03T00:10:55.107Z,11.33
2018-10-03T00:12:05.067Z,11.25
2018-10-03T00:13:14.764Z,11.27
2018-10-03T00:14:24.453Z,11.27
2018-10-03T00:15:34.151Z,11.27
2018-10-03T00:16:44.088Z,11.26
2018-10-03T00:17:53.782Z,11.31
2018-10-03T00:19:03.456Z,11.37
2018-10-03T00:20:13.408Z,11.34
2018-10-03T00:21:23.346Z,11.33
2018-10-03T00:22:33.293Z,11.3
2018-10-03T00:23:43.246Z,11.26
2018-10-03T00:24:53.180Z,11.27
2018-10-03T00:26:03.113Z,11.22
2018-10-03T00:27:13.158Z,11.26
2018-10-03T00:28:22.858Z,11.26
2018-10-03T00:29:32.810Z,11.22
2018-10-03T00:30:42.764Z,11.16
2018-10-03T00:31:52.446Z,11.18
2018-10-03T00:33:02.382Z,11.19
2018-10-03T00:34:12.073Z,11.22
2018-10-03T00:35:21.738Z,11.26
2018-10-03T00:36:31.423Z,11.27
2018-10-03T00:37:41.356Z,11.2
2018-10-03T00:38:51.291Z,11.25
2018-10-03T00:40:01.247Z,11.23
2018-10-03T00:41:11.201Z,11.19
2018-10-03T00:42:21.164Z,11.22
2018-10-03T00:43:31.106Z,11.2
2018-10-03T00:44:41.045Z,11.23
2018-10-03T00:45:50.718Z,11.22
2018-10-03T00:47:00.670Z,11.22
2018-10-03T00:48:10.625Z,11.22
2018-10-03T00:49:20.316Z,11.19
2018-10-03T00:50:30.264Z,11.18
2018-10-03T00:51:40.205Z,11.19
2018-10-03T00:52:49.885Z,11.16
2018-10-03T00:53:59.839Z,11.1
2018-10-03T00:55:09.786Z,11.05
2018-10-03T00:56:19.734Z,11.08
2018-10-03T00:57:29.671Z,11.12
2018-10-03T00:58:39.602Z,11.04
2018-10-03T00:59:49.554Z,11.15
2018-10-03T01:00:59.495Z,11.12
2018-10-03T01:02:09.451Z,11.16
2018-10-03T01:03:19.394Z,11.1
2018-10-03T01:04:29.335Z,11.12
2018-10-03T01:05:39.275Z,11.05
2018-10-03T01:06:49.246Z,11.08
2018-10-03T01:07:58.935Z,11.12
2018-10-03T01:09:08.868Z,11.15
2018-10-03T01:10:18.827Z,11.05
2018-10-03T01:11:28.776Z,11.07
2018-10-03T01:12:38.473Z,11.07
2018-10-03T01:13:48.173Z,11.1
2018-10-03T01:14:58.122Z,11.13
2018-10-03T01:16:08.081Z,11.16
2018-10-03T01:17:17.760Z,11.05
2018-10-03T01:18:27.698Z,11.12
2018-10-03T01:19:37.375Z,11.15
2018-10-03T01:20:47.322Z,11.07
2018-10-03T01:21:56.757Z,11.02
2018-10-03T01:23:06.734Z,11.07
2018-10-03T01:24:16.722Z,11.07
2018-10-03T01:25:26.661Z,11.1
2018-10-03T01:26:36.600Z,11.12
2018-10-03T01:27:46.540Z,11.05
2018-10-03T01:28:56.227Z,11.01
2018-10-03T01:30:06.186Z,11.01
2018-10-03T01:31:16.127Z,10.98
2018-10-03T01:32:26.060Z,11.07
2018-10-03T01:33:35.495Z,11.02
2018-10-03T01:34:45.181Z,11.02
2018-10-03T01:35:54.859Z,11.08
2018-10-03T01:37:04.316Z,11.16
2018-10-03T01:38:14.434Z,11.08
2018-10-03T01:39:24.585Z,11.16
2018-10-03T01:40:34.523Z,11.13
2018-10-03T01:41:44.459Z,11.05
2018-10-03T01:42:53.891Z,10.89
2018-10-03T01:44:03.852Z,10.9
2018-10-03T01:45:13.824Z,10.97
2018-10-03T01:46:23.759Z,10.86
2018-10-03T01:47:33.447Z,10.9
2018-10-03T01:48:43.117Z,11
2018-10-03T01:49:52.560Z,10.95
2018-10-03T01:51:02.511Z,11.07
2018-10-03T01:52:11.928Z,11.01
2018-10-03T01:53:21.624Z,11.02
2018-10-03T01:54:31.315Z,10.97
2018-10-03T01:55:41.266Z,10.98
2018-10-03T01:56:51.208Z,11
2018-10-03T01:58:00.912Z,11.04
2018-10-03T01:59:10.600Z,11.01
2018-10-03T02:00:20.539Z,10.98
2018-10-03T02:01:30.499Z,10.97
2018-10-03T02:02:40.179Z,11.02
2018-10-03T02:03:49.879Z,11.04
2018-10-03T02:04:59.881Z,10.92
2018-10-03T02:06:09.829Z,10.95
2018-10-03T02:07:19.531Z,10.9
2018-10-03T02:08:29.480Z,10.79
2018-10-03T02:09:39.455Z,10.94
2018-10-03T02:10:49.409Z,10.84
2018-10-03T02:11:59.349Z,10.82
2018-10-03T02:13:09.041Z,10.82
2018-10-03T02:14:19.243Z,10.79
2018-10-03T02:15:28.923Z,10.76
2018-10-03T02:16:38.882Z,10.8
2018-10-03T02:17:48.323Z,10.76
2018-10-03T02:18:58.274Z,10.82
2018-10-03T02:20:08.214Z,10.83
2018-10-03T02:21:17.897Z,10.75
2018-10-03T02:22:27.318Z,10.72
2018-10-03T02:23:37.001Z,10.82
2018-10-03T02:24:46.683Z,10.75
2018-10-03T02:25:56.620Z,10.77
2018-10-03T02:27:06.557Z,10.68
2018-10-03T02:28:16.810Z,10.67
2018-10-03T02:29:26.750Z,10.64
2018-10-03T02:30:36.454Z,10.68
2018-10-03T02:31:46.143Z,10.62
2018-10-03T02:32:56.088Z,10.77
2018-10-03T02:34:06.034Z,10.76
2018-10-03T02:35:15.461Z,10.79
2018-10-03T02:36:25.416Z,10.75
2018-10-03T02:37:35.113Z,10.71
2018-10-03T02:38:45.060Z,10.82
2018-10-03T02:39:54.998Z,10.79
2018-10-03T02:41:04.691Z,10.82
2018-10-03T02:42:14.103Z,10.8
2018-10-03T02:43:23.801Z,10.8
2018-10-03T02:44:33.731Z,10.8
2018-10-03T02:45:43.671Z,10.72
2018-10-03T02:46:53.342Z,10.8
2018-10-03T02:48:03.293Z,10.8
2018-10-03T02:49:12.979Z,10.75
2018-10-03T02:50:22.938Z,10.8
2018-10-03T02:51:32.640Z,10.84
2018-10-03T02:52:42.595Z,10.9
2018-10-03T02:53:51.767Z,10.89
2018-10-03T02:55:01.706Z,10.9
2018-10-03T02:56:11.657Z,10.97
2018-10-03T02:57:21.595Z,10.87
2018-10-03T02:58:31.539Z,10.89
2018-10-03T02:59:41.231Z,11
2018-10-03T03:00:51.174Z,10.95
2018-10-03T03:02:01.130Z,10.94
2018-10-03T03:03:10.820Z,10.94
2018-10-03T03:04:20.501Z,10.9
2018-10-03T03:05:30.473Z,10.9
2018-10-03T03:06:40.412Z,10.82
2018-10-03T03:07:50.095Z,10.8
2018-10-03T03:08:59.943Z,10.79
2018-10-03T03:10:10.148Z,10.69
2018-10-03T03:11:20.124Z,10.67
2018-10-03T03:12:30.065Z,10.62
2018-10-03T03:13:40.033Z,10.65
2018-10-03T03:14:49.981Z,10.64
2018-10-03T03:15:59.934Z,10.67
2018-10-03T03:17:09.895Z,10.57
2018-10-03T03:18:19.590Z,10.68
2018-10-03T03:19:29.571Z,10.62
2018-10-03T03:20:39.261Z,10.53
2018-10-03T03:21:48.697Z,10.53
2018-10-03T03:22:58.370Z,10.57
2018-10-03T03:24:08.065Z,10.53
2018-10-03T03:25:18.013Z,10.65
2018-10-03T03:26:27.995Z,10.59
2018-10-03T03:27:37.953Z,10.58
2018-10-03T03:28:47.649Z,10.65
2018-10-03T03:29:57.326Z,10.53
2018-10-03T03:31:07.029Z,10.53
2018-10-03T03:32:16.984Z,10.59
2018-10-03T03:33:26.411Z,10.55
2018-10-03T03:34:36.356Z,10.53
2018-10-03T03:35:46.318Z,10.53
2018-10-03T03:36:56.271Z,10.61
2018-10-03T03:38:06.204Z,10.51
2018-10-03T03:39:16.132Z,10.51
2018-10-03T03:40:26.089Z,10.53
2018-10-03T03:41:36.071Z,10.53
2018-10-03T03:42:45.767Z,10.49
2018-10-03T03:43:55.718Z,10.43
2018-10-03T03:45:05.400Z,10.39
2018-10-03T03:46:15.094Z,10.53
2018-10-03T03:47:25.039Z,10.49
2018-10-03T03:48:34.974Z,10.49
2018-10-03T03:49:44.688Z,10.41
2018-10-03T03:50:54.633Z,10.49
2018-10-03T03:52:04.317Z,10.51
2018-10-03T03:53:14.273Z,10.43
2018-10-03T03:54:23.960Z,10.53
2018-10-03T03:55:33.911Z,10.49
2018-10-03T03:56:43.609Z,10.51
2018-10-03T03:57:53.615Z,10.49
2018-10-03T03:59:03.583Z,10.41
2018-10-03T04:00:13.000Z,10.53
2018-10-03T04:01:22.939Z,10.42
2018-10-03T04:02:32.893Z,10.42
2018-10-03T04:03:42.851Z,10.42
2018-10-03T04:04:52.797Z,10.48
2018-10-03T04:06:02.756Z,10.43
2018-10-03T04:07:12.683Z,10.49
2018-10-03T04:08:22.639Z,10.43
2018-10-03T04:09:32.075Z,10.46
2018-10-03T04:10:41.999Z,10.43
2018-10-03T04:11:51.698Z,10.51
2018-10-03T04:13:01.638Z,10.48
2018-10-03T04:14:11.305Z,10.46
2018-10-03T04:15:20.975Z,10.46
2018-10-03T04:16:30.649Z,10.49
2018-10-03T04:17:40.596Z,10.53
2018-10-03T04:18:50.020Z,10.53
2018-10-03T04:19:59.979Z,10.53
2018-10-03T04:21:09.652Z,10.53
2018-10-03T04:22:19.352Z,10.49
2018-10-03T04:23:29.303Z,10.51
2018-10-03T04:24:39.253Z,10.49
2018-10-03T04:25:48.936Z,10.57
2018-10-03T04:26:58.912Z,10.55
2018-10-03T04:28:08.865Z,10.49
2018-10-03T04:29:18.826Z,10.49
2018-10-03T04:30:28.759Z,10.48
2018-10-03T04:31:37.928Z,10.49
2018-10-03T04:32:47.870Z,10.45
2018-10-03T04:33:57.808Z,10.45
2018-10-03T04:35:07.740Z,10.53
2018-10-03T04:36:17.754Z,10.53
2018-10-03T04:37:27.714Z,10.55
2018-10-03T04:38:37.658Z,10.51
2018-10-03T04:39:47.613Z,10.53
2018-10-03T04:40:57.548Z,10.53
2018-10-03T04:42:07.591Z,10.59
2018-10-03T04:43:17.354Z,10.55
2018-10-03T04:44:27.305Z,10.51
2018-10-03T04:45:37.248Z,10.65
2018-10-03T04:46:47.192Z,10.64
2018-10-03T04:47:57.142Z,10.62
2018-10-03T04:49:07.417Z,10.68
2018-10-03T04:50:17.682Z,10.68
2018-10-03T04:51:27.656Z,10.61
2018-10-03T04:52:37.601Z,10.68
2018-10-03T04:53:47.540Z,10.67
2018-10-03T04:54:57.503Z,10.62
2018-10-03T04:56:07.198Z,10.62
2018-10-03T04:57:16.905Z,10.59
2018-10-03T04:58:26.595Z,10.64
2018-10-03T04:59:36.532Z,10.65
2018-10-03T05:00:46.489Z,10.59
2018-10-03T05:01:56.480Z,10.57
2018-10-03T05:03:06.433Z,10.55
2018-10-03T05:04:16.377Z,10.55
2018-10-03T05:05:26.314Z,10.59
2018-10-03T05:06:36.014Z,10.59
2018-10-03T05:07:45.963Z,10.59
2018-10-03T05:08:55.944Z,10.51
2018-10-03T05:10:05.650Z,10.55
2018-10-03T05:11:15.429Z,10.57
2018-10-03T05:12:25.615Z,10.49
2018-10-03T05:13:35.305Z,10.59
2018-10-03T05:14:44.993Z,10.53
2018-10-03T05:15:54.938Z,10.67
2018-10-03T05:17:04.880Z,10.69
2018-10-03T05:18:14.576Z,10.75
2018-10-03T05:19:24.518Z,10.72
2018-10-03T05:20:34.456Z,10.76
2018-10-03T05:21:44.386Z,10.77
2018-10-03T05:22:54.342Z,10.8
2018-10-03T05:24:04.286Z,10.77
2018-10-03T05:25:14.243Z,10.79
2018-10-03T05:26:23.930Z,10.68
2018-10-03T05:27:33.884Z,10.65
2018-10-03T05:28:43.898Z,10.68
2018-10-03T05:29:53.589Z,10.65
2018-10-03T05:31:03.280Z,10.68
2018-10-03T05:32:13.233Z,10.68
2018-10-03T05:33:23.587Z,10.68
2018-10-03T05:34:33.708Z,10.71
2018-10-03T05:35:43.663Z,10.75
2018-10-03T05:36:53.619Z,10.79
2018-10-03T05:38:03.562Z,10.76
2018-10-03T05:39:13.524Z,10.76
2018-10-03T05:40:23.469Z,10.76
2018-10-03T05:41:33.469Z,10.8
2018-10-03T05:42:43.434Z,10.8
2018-10-03T05:43:53.120Z,10.71
2018-10-03T05:45:03.045Z,10.68
2018-10-03T05:46:12.742Z,10.65
2018-10-03T05:47:22.684Z,10.71
2018-10-03T05:48:33.001Z,10.69
2018-10-03T05:49:42.837Z,10.69
2018-10-03T05:50:52.799Z,10.69
2018-10-03T05:52:02.729Z,10.72
2018-10-03T05:53:12.437Z,10.69
2018-10-03T05:54:22.131Z,10.69
2018-10-03T05:55:32.069Z,10.75
2018-10-03T05:56:41.492Z,10.71
2018-10-03T05:57:51.444Z,10.75
2018-10-03T05:59:01.142Z,10.79
2018-10-03T06:00:11.133Z,10.79
2018-10-03T06:01:21.070Z,10.62
2018-10-03T06:02:30.757Z,10.58
2018-10-03T06:03:40.699Z,10.39
2018-10-03T06:04:50.652Z,10.58
2018-10-03T06:06:00.598Z,10.53
2018-10-03T06:07:10.558Z,10.57
2018-10-03T06:08:20.504Z,10.53
2018-10-03T06:09:30.473Z,10.58
2018-10-03T06:10:40.423Z,10.67
2018-10-03T06:11:50.396Z,10.69
2018-10-03T06:13:00.363Z,10.71
2018-10-03T06:14:10.069Z,10.82
2018-10-03T06:15:19.488Z,10.83
2018-10-03T06:16:29.440Z,10.76
2018-10-03T06:17:38.870Z,10.72
2018-10-03T06:18:48.977Z,10.75
2018-10-03T06:19:58.508Z,10.79
2018-10-03T06:21:07.680Z,10.71
2018-10-03T06:22:16.861Z,10.84
2018-10-03T06:23:26.542Z,10.72
2018-10-03T06:24:36.498Z,10.77
2018-10-03T06:25:46.195Z,10.77
2018-10-03T06:26:55.888Z,10.84
2018-10-03T06:28:05.646Z,10.79
2018-10-03T06:29:15.361Z,10.76
2018-10-03T06:30:25.049Z,10.8
2018-10-03T06:31:34.799Z,10.68
2018-10-03T06:32:44.224Z,10.79
2018-10-03T06:33:53.923Z,10.75
2018-10-03T06:35:03.896Z,10.82
2018-10-03T06:36:13.848Z,10.83
2018-10-03T06:37:23.547Z,10.9
2018-10-03T06:38:33.495Z,10.87
2018-10-03T06:39:43.434Z,10.9
2018-10-03T06:40:53.131Z,10.9
2018-10-03T06:42:03.108Z,10.95
2018-10-03T06:43:13.067Z,10.97
2018-10-03T06:44:22.766Z,11.04
2018-10-03T06:45:32.869Z,10.98
2018-10-03T06:46:43.101Z,10.97
2018-10-03T06:47:53.062Z,10.98
2018-10-03T06:49:03.046Z,10.98
2018-10-03T06:50:13.189Z,10.97
2018-10-03T06:51:22.898Z,11.04
2018-10-03T06:52:32.851Z,10.98
2018-10-03T06:53:42.549Z,11.08
2018-10-03T06:54:52.232Z,11
2018-10-03T06:56:02.175Z,11.04
2018-10-03T06:57:12.536Z,11.07
2018-10-03T06:58:22.489Z,11.04
2018-10-03T06:59:32.425Z,11.01
2018-10-03T07:00:42.116Z,11.1
2018-10-03T07:01:52.062Z,10.97
2018-10-03T07:03:02.010Z,10.98
2018-10-03T07:04:11.988Z,11.04
2018-10-03T07:05:21.954Z,11.04
2018-10-03T07:06:31.910Z,10.92
2018-10-03T07:07:41.873Z,10.95
2018-10-03T07:08:51.817Z,10.9
2018-10-03T07:10:01.518Z,10.86
2018-10-03T07:11:11.454Z,10.86
2018-10-03T07:12:21.138Z,10.83
2018-10-03T07:13:31.093Z,10.86
2018-10-03T07:14:41.069Z,10.86
2018-10-03T07:15:50.764Z,10.87
2018-10-03T07:17:00.461Z,10.94
2018-10-03T07:18:10.420Z,10.94
2018-10-03T07:19:20.370Z,11
2018-10-03T07:20:30.309Z,10.98
2018-10-03T07:21:40.282Z,11
2018-10-03T07:22:50.461Z,10.97
2018-10-03T07:24:00.407Z,11.07
2018-10-03T07:25:10.367Z,11.01
2018-10-03T07:26:20.599Z,11.12
2018-10-03T07:27:30.567Z,11.01
2018-10-03T07:28:40.313Z,11.07
2018-10-03T07:29:50.256Z,11.02
2018-10-03T07:30:59.947Z,11.01
2018-10-03T07:32:09.635Z,11.1
2018-10-03T07:33:19.079Z,11.07
2018-10-03T07:34:29.046Z,11.15
2018-10-03T07:35:38.989Z,11.16
2018-10-03T07:36:48.407Z,11.13
2018-10-03T07:37:58.359Z,11.13
2018-10-03T07:39:08.304Z,11.19
2018-10-03T07:40:18.009Z,11.23
2018-10-03T07:41:27.714Z,11.23
2018-10-03T07:42:37.674Z,11.25
2018-10-03T07:43:47.618Z,11.27
2018-10-03T07:44:57.596Z,11.26
2018-10-03T07:46:07.255Z,11.26
2018-10-03T07:47:16.925Z,11.41
2018-10-03T07:48:26.889Z,11.35
2018-10-03T07:49:36.860Z,11.38
2018-10-03T07:50:46.834Z,11.37
2018-10-03T07:51:56.791Z,11.44
2018-10-03T07:53:06.754Z,11.49
2018-10-03T07:54:16.702Z,11.49
2018-10-03T07:55:26.656Z,11.52
2018-10-03T07:56:36.604Z,11.53
2018-10-03T07:57:46.569Z,11.62
2018-10-03T07:58:56.716Z,11.62
2018-10-03T08:00:06.825Z,11.65
2018-10-03T08:01:16.775Z,11.8
2018-10-03T08:02:26.737Z,11.85
2018-10-03T08:03:36.712Z,11.96
2018-10-03T08:04:46.700Z,11.96
2018-10-03T08:05:56.390Z,11.99
2018-10-03T08:07:06.328Z,11.96
2018-10-03T08:08:16.015Z,11.96
2018-10-03T08:09:25.713Z,11.99
2018-10-03T08:10:35.416Z,12
2018-10-03T08:11:45.106Z,12.23
2018-10-03T08:12:54.545Z,12.17
2018-10-03T08:14:04.498Z,12.2
2018-10-03T08:15:14.451Z,12.29
2018-10-03T08:16:24.143Z,12.25
2018-10-03T08:17:33.837Z,12.23
2018-10-03T08:18:43.517Z,12.35
2018-10-03T08:19:53.489Z,12.35
2018-10-03T08:21:03.208Z,12.37
2018-10-03T08:22:13.172Z,12.36
2018-10-03T08:23:23.107Z,12.53
2018-10-03T08:24:32.973Z,12.48
2018-10-03T08:25:43.186Z,12.43
2018-10-03T08:26:53.130Z,12.33
2018-10-03T08:28:02.577Z,12.36
2018-10-03T08:29:12.552Z,12.57
2018-10-03T08:30:22.519Z,12.62
2018-10-03T08:31:32.488Z,12.63
2018-10-03T08:32:43.034Z,12.73
2018-10-03T08:33:52.990Z,12.75
2018-10-03T08:35:02.947Z,12.66
2018-10-03T08:36:12.647Z,12.65
2018-10-03T08:37:22.601Z,12.72
2018-10-03T08:38:32.730Z,12.68
2018-10-03T08:39:42.761Z,12.76
2018-10-03T08:40:52.718Z,12.76
2018-10-03T08:42:02.688Z,12.78
2018-10-03T08:43:12.658Z,12.78
2018-10-03T08:44:22.624Z,12.93
2018-10-03T08:45:32.866Z,12.93
2018-10-03T08:46:43.090Z,12.9
2018-10-03T08:47:53.054Z,12.91
2018-10-03T08:49:03.018Z,12.91
2018-10-03T08:50:12.971Z,12.9
2018-10-03T08:51:22.939Z,12.83
2018-10-03T08:52:32.884Z,12.73
2018-10-03T08:53:42.614Z,12.66
2018-10-03T08:54:52.580Z,12.53
2018-10-03T08:56:02.280Z,12.53
2018-10-03T08:57:12.225Z,12.45
2018-10-03T08:58:22.313Z,12.4
2018-10-03T08:59:33.021Z,12.37
2018-10-03T09:00:42.968Z,12.37
2018-10-03T09:01:52.671Z,12.35
2018-10-03T09:03:02.624Z,12.39
2018-10-03T09:04:12.055Z,12.45
2018-10-03T09:05:22.052Z,12.51
2018-10-03T09:06:31.991Z,12.53
2018-10-03T09:07:41.693Z,12.5
2018-10-03T09:08:51.639Z,12.51
2018-10-03T09:10:01.603Z,12.63
2018-10-03T09:11:11.564Z,12.63
2018-10-03T09:12:21.269Z,12.72
2018-10-03T09:13:30.973Z,12.72
2018-10-03T09:14:40.935Z,12.7
2018-10-03T09:15:50.910Z,12.66
2018-10-03T09:17:00.602Z,12.63
2018-10-03T09:18:10.316Z,12.66
2018-10-03T09:19:20.016Z,12.58
2018-10-03T09:20:29.981Z,12.72
2018-10-03T09:21:39.780Z,12.75
2018-10-03T09:22:49.831Z,12.88
2018-10-03T09:23:59.531Z,12.75
2018-10-03T09:25:09.294Z,12.78
2018-10-03T09:26:19.245Z,12.68
2018-10-03T09:27:29.196Z,12.65
2018-10-03T09:28:38.919Z,12.68
2018-10-03T09:29:48.886Z,12.62
2018-10-03T09:30:58.842Z,12.75
2018-10-03T09:32:08.537Z,12.83
2018-10-03T09:33:18.506Z,12.76
2018-10-03T09:34:28.455Z,12.81
2018-10-03T09:35:38.140Z,12.75
2018-10-03T09:36:47.850Z,12.76
2018-10-03T09:37:57.051Z,12.76
2018-10-03T09:39:06.760Z,12.63
2018-10-03T09:40:16.460Z,12.73
2018-10-03T09:41:26.428Z,12.73
2018-10-03T09:42:36.128Z,12.76
2018-10-03T09:43:46.235Z,12.86
2018-10-03T09:44:56.473Z,12.87
2018-10-03T09:46:06.527Z,12.87
2018-10-03T09:47:16.502Z,12.75
2018-10-03T09:48:26.195Z,12.78
2018-10-03T09:49:36.164Z,12.84
2018-10-03T09:50:46.140Z,12.86
2018-10-03T09:51:56.092Z,13.03
2018-10-03T09:53:06.044Z,13.08
2018-10-03T09:54:15.745Z,13.12
2018-10-03T09:55:25.437Z,13.11
2018-10-03T09:56:35.397Z,13.17
2018-10-03T09:57:45.345Z,13.11
2018-10-03T09:58:55.035Z,13.23
2018-10-03T10:00:04.483Z,13.36
2018-10-03T10:01:14.455Z,13.55
2018-10-03T10:02:24.411Z,13.75
2018-10-03T10:03:34.371Z,13.73
2018-10-03T10:04:44.395Z,13.64
2018-10-03T10:05:54.105Z,13.55
2018-10-03T10:07:04.075Z,13.55
2018-10-03T10:08:14.029Z,13.45
2018-10-03T10:09:23.736Z,13.2
2018-10-03T10:10:33.699Z,13.17
2018-10-03T10:11:44.471Z,13.05
2018-10-03T10:12:54.254Z,13.2
2018-10-03T10:14:04.229Z,13.21
2018-10-03T10:15:14.231Z,13.19
2018-10-03T10:16:23.925Z,13.24
2018-10-03T10:17:33.899Z,13.24
2018-10-03T10:18:43.909Z,13.37
2018-10-03T10:19:53.899Z,13.36
2018-10-03T10:21:03.833Z,13.12
2018-10-03T10:22:13.781Z,12.95
2018-10-03T10:23:23.756Z,12.86
2018-10-03T10:24:33.714Z,12.87
2018-10-03T10:25:43.659Z,12.87
2018-10-03T10:26:53.601Z,12.93
2018-10-03T10:28:03.313Z,12.99
2018-10-03T10:29:13.028Z,13.08
2018-10-03T10:30:22.720Z,13.21
2018-10-03T10:31:32.424Z,13.3
2018-10-03T10:32:42.753Z,13.45
2018-10-03T10:33:52.761Z,13.7
2018-10-03T10:35:02.733Z,13.64
2018-10-03T10:36:12.724Z,13.73
2018-10-03T10:37:22.424Z,13.73
2018-10-03T10:38:32.126Z,13.95
2018-10-03T10:39:42.119Z,14.13
2018-10-03T10:40:52.313Z,14.2
2018-10-03T10:42:02.146Z,14.05
2018-10-03T10:43:12.170Z,14.05
2018-10-03T10:44:21.659Z,13.98
2018-10-03T10:45:31.640Z,14.01
2018-10-03T10:46:41.869Z,14.05
2018-10-03T10:47:52.044Z,14.3
2018-10-03T10:49:01.987Z,14.58
2018-10-03T10:50:11.954Z,14.99
2018-10-03T10:51:21.548Z,15.02
2018-10-03T10:52:31.512Z,14.81
2018-10-03T10:53:41.481Z,14.92
2018-10-03T10:54:51.454Z,14.87
2018-10-03T10:56:01.151Z,14.61
2018-10-03T10:57:10.855Z,14.59
2018-10-03T10:58:20.811Z,13.95
2018-10-03T10:59:30.781Z,13.45
2018-10-03T11:00:40.843Z,12.98
2018-10-03T11:01:50.564Z,12.76
2018-10-03T11:03:00.532Z,12.51
2018-10-03T11:04:10.500Z,12.5
2018-10-03T11:05:20.451Z,12.37
2018-10-03T11:06:30.510Z,12.43
2018-10-03T11:07:40.386Z,12.4
2018-10-03T11:08:50.360Z,12.45
2018-10-03T11:10:00.319Z,12.45
2018-10-03T11:11:10.272Z,12.47
2018-10-03T11:12:19.968Z,12.51
2018-10-03T11:13:29.927Z,12.48
2018-10-03T11:14:39.914Z,12.57
2018-10-03T11:15:49.617Z,12.53
2018-10-03T11:16:59.781Z,12.5
2018-10-03T11:18:10.071Z,12.65
2018-10-03T11:19:20.054Z,12.73
2018-10-03T11:20:30.021Z,12.65
2018-10-03T11:21:39.731Z,12.73
2018-10-03T11:22:49.693Z,12.87
2018-10-03T11:23:59.881Z,12.94
2018-10-03T11:25:10.265Z,12.93
2018-10-03T11:26:19.702Z,12.99
2018-10-03T11:27:29.679Z,13.05
2018-10-03T11:28:39.629Z,13.01
2018-10-03T11:29:49.611Z,12.94
2018-10-03T11:30:59.324Z,13.06
2018-10-03T11:32:09.501Z,13.01
2018-10-03T11:33:19.797Z,12.87
2018-10-03T11:34:29.783Z,12.44
2018-10-03T11:35:39.745Z,11.89
2018-10-03T11:36:49.710Z,11.49
2018-10-03T11:37:59.679Z,11.16
2018-10-03T11:39:09.707Z,10.95
2018-10-03T11:40:19.678Z,10.8
2018-10-03T11:41:29.400Z,10.62
2018-10-03T11:42:39.360Z,10.55
2018-10-03T11:43:49.161Z,10.49
2018-10-03T11:44:59.312Z,10.46
2018-10-03T11:46:09.271Z,10.61
2018-10-03T11:47:18.967Z,10.83
2018-10-03T11:48:28.959Z,11.07
2018-10-03T11:49:38.688Z,11.31
2018-10-03T11:50:48.740Z,11.53
2018-10-03T11:51:58.107Z,11.95
2018-10-03T11:53:07.540Z,12.08
2018-10-03T11:54:17.246Z,12.32
2018-10-03T11:55:26.984Z,12.45
2018-10-03T11:56:36.944Z,12.68
2018-10-03T11:57:46.650Z,12.83
2018-10-03T11:58:56.646Z,12.94
2018-10-03T12:00:06.638Z,13.11
2018-10-03T12:01:16.388Z,13.21
2018-10-03T12:02:26.099Z,13.4
2018-10-03T12:03:36.290Z,13.43
2018-10-03T12:04:46.419Z,13.68
2018-10-03T12:05:56.402Z,13.87
2018-10-03T12:07:06.117Z,13.87
2018-10-03T12:08:16.093Z,13.86
2018-10-03T12:09:26.518Z,13.93
2018-10-03T12:10:36.543Z,13.76
2018-10-03T12:11:46.522Z,13.78
2018-10-03T12:12:56.474Z,13.93
2018-10-03T12:14:06.429Z,13.89
2018-10-03T12:15:16.502Z,13.97
2018-10-03T12:16:26.501Z,14.15
2018-10-03T12:17:36.484Z,14.3
2018-10-03T12:18:45.936Z,14.31
2018-10-03T12:19:55.648Z,14.41
2018-10-03T12:21:05.379Z,14.52
2018-10-03T12:22:15.390Z,14.73
2018-10-03T12:23:25.350Z,14.68
2018-10-03T12:24:35.332Z,14.93
2018-10-03T12:25:45.310Z,15.08
2018-10-03T12:26:55.320Z,15.12
2018-10-03T12:28:04.759Z,15.17
2018-10-03T12:29:14.459Z,15.19
2018-10-03T12:30:24.153Z,15.02
2018-10-03T12:31:33.877Z,15.19
2018-10-03T12:32:43.579Z,15.12
2018-10-03T12:33:53.422Z,14.97
2018-10-03T12:35:03.527Z,14.63
2018-10-03T12:36:13.512Z,14.67
2018-10-03T12:37:23.466Z,14.96
2018-10-03T12:38:33.183Z,15.26
2018-10-03T12:39:42.895Z,15.27
2018-10-03T12:40:52.863Z,15.26
2018-10-03T12:42:02.827Z,15.04
2018-10-03T12:43:12.259Z,14.89
2018-10-03T12:44:22.223Z,14.59
2018-10-03T12:45:32.188Z,14.33
2018-10-03T12:46:41.890Z,14.07
2018-10-03T12:47:51.380Z,14.01
2018-10-03T12:49:01.100Z,14.15
2018-10-03T12:50:11.064Z,14.31
2018-10-03T12:51:20.515Z,14.34
2018-10-03T12:52:30.475Z,14.28
2018-10-03T12:53:40.427Z,14.13
2018-10-03T12:54:50.704Z,14.16
2018-10-03T12:56:00.958Z,14.2
2018-10-03T12:57:10.948Z,14.15
2018-10-03T12:58:20.933Z,14.11
2018-10-03T12:59:30.387Z,14.03
2018-10-03T13:00:40.372Z,13.87
2018-10-03T13:01:50.072Z,14.2
2018-10-03T13:03:00.032Z,14.25
2018-10-03T13:04:10.005Z,14.56
2018-10-03T13:05:19.979Z,14.86
2018-10-03T13:06:29.943Z,15.04
2018-10-03T13:07:39.895Z,15.29
2018-10-03T13:08:49.850Z,15.51
2018-10-03T13:09:59.810Z,15.54
2018-10-03T13:11:09.243Z,15.43
2018-10-03T13:12:19.216Z,15.23
2018-10-03T13:13:28.921Z,14.94
2018-10-03T13:14:38.886Z,14.86
2018-10-03T13:15:48.843Z,14.62
2018-10-03T13:16:58.795Z,14.53
2018-10-03T13:18:08.760Z,14.37
2018-10-03T13:19:18.455Z,14.34
2018-10-03T13:20:28.440Z,14.3
2018-10-03T13:21:38.157Z,14.33
2018-10-03T13:22:48.125Z,14.31
2018-10-03T13:23:57.819Z,14.13
2018-10-03T13:25:07.521Z,14.13
2018-10-03T13:26:17.474Z,14.05
2018-10-03T13:27:27.170Z,14.08
2018-10-03T13:28:37.132Z,14.23
2018-10-03T13:29:47.080Z,14.34
2018-10-03T13:30:57.042Z,14.63
2018-10-03T13:32:06.759Z,14.87
2018-10-03T13:33:16.461Z,15.1
2018-10-03T13:34:25.654Z,15.12
2018-10-03T13:35:35.621Z,15.37
2018-10-03T13:36:45.584Z,15.41
2018-10-03T13:37:55.545Z,15.45
2018-10-03T13:39:05.271Z,15.6
2018-10-03T13:40:15.226Z,15.52
2018-10-03T13:41:25.339Z,15.44
2018-10-03T13:42:35.488Z,15.55
2018-10-03T13:43:45.439Z,15.47
2018-10-03T13:44:55.416Z,15.36
2018-10-03T13:46:05.142Z,15.43
2018-10-03T13:47:14.607Z,15.35
2018-10-03T13:48:24.313Z,15.43
2018-10-03T13:49:34.292Z,15.55
2018-10-03T13:50:44.254Z,15.62
2018-10-03T13:51:53.971Z,15.52
2018-10-03T13:53:03.675Z,15.44
2018-10-03T13:54:13.118Z,15.45
2018-10-03T13:55:23.105Z,15.52
2018-10-03T13:56:32.818Z,15.57
2018-10-03T13:57:42.806Z,15.66
2018-10-03T13:58:52.766Z,15.65
2018-10-03T14:00:02.718Z,15.63
2018-10-03T14:01:12.676Z,15.55
2018-10-03T14:02:22.648Z,15.48
2018-10-03T14:03:32.609Z,15.51
2018-10-03T14:04:42.040Z,15.63
2018-10-03T14:05:51.483Z,15.59
2018-10-03T14:07:01.443Z,15.73
2018-10-03T14:08:11.414Z,15.7
2018-10-03T14:09:21.368Z,15.67
2018-10-03T14:10:30.815Z,15.69
2018-10-03T14:11:40.804Z,15.8
2018-10-03T14:12:50.756Z,15.78
2018-10-03T14:14:00.734Z,15.87
2018-10-03T14:15:10.457Z,15.85
2018-10-03T14:16:20.422Z,15.75
2018-10-03T14:17:30.387Z,15.6
2018-10-03T14:18:40.647Z,15.57
2018-10-03T14:19:50.891Z,15.41
2018-10-03T14:21:00.868Z,15.33
2018-10-03T14:22:10.814Z,15.27
2018-10-03T14:23:20.520Z,15.22
2018-10-03T14:24:30.739Z,15.29
2018-10-03T14:25:40.984Z,15.33
2018-10-03T14:26:50.953Z,15.36
2018-10-03T14:28:00.928Z,15.39
2018-10-03T14:29:10.643Z,15.48
2018-10-03T14:30:20.356Z,15.5
2018-10-03T14:31:30.318Z,15.44
2018-10-03T14:32:40.305Z,15.27
2018-10-03T14:33:50.268Z,15.08
2018-10-03T14:35:00.227Z,15.12
2018-10-03T14:36:10.248Z,15.23
2018-10-03T14:37:19.950Z,15.36
2018-10-03T14:38:29.923Z,15.44
2018-10-03T14:39:40.014Z,15.3
2018-10-03T14:40:49.836Z,15.22
2018-10-03T14:41:59.526Z,15.18
2018-10-03T14:43:08.984Z,15.18
2018-10-03T14:44:18.959Z,15.17
2018-10-03T14:45:28.684Z,15.25
2018-10-03T14:46:38.753Z,15.15
2018-10-03T14:47:49.043Z,15.12
2018-10-03T14:48:59.010Z,15.19
2018-10-03T14:50:08.979Z,15.37
2018-10-03T14:51:18.960Z,15.33
2018-10-03T14:52:29.034Z,15.35
2018-10-03T14:53:39.071Z,15.27
2018-10-03T14:54:48.761Z,15.29
2018-10-03T14:55:58.721Z,15.39
2018-10-03T14:57:08.670Z,15.23
2018-10-03T14:58:18.755Z,15.22
2018-10-03T14:59:28.978Z,15.12
2018-10-03T15:00:38.924Z,15.08
2018-10-03T15:01:49.273Z,15
2018-10-03T15:02:59.330Z,15.05